Time;durP1;ratioP1;P1;durP2;ratioP2;P2;SDS_P1;SDS_P2;PMS_P1;PMS_P2;Temp;Humidity;BMP_temperature;BMP_pressure;BME280_temperature;BME280_humidity;BME280_pressure;Samples;Min_cycle;Max_cycle;Signal;HPM_P1;HPM_P2
2021/09/30 00:01:13;;;;;;;8.75;1.80;;;;;;;9.37;100.00;101406.16;4958359;28;20034;-77
2021/09/30 00:03:38;;;;;;;8.77;2.00;;;;;;;9.35;100.00;101414.94;4968998;28;20030;-78
2021/09/30 00:06:04;;;;;;;7.85;1.80;;;;;;;9.40;100.00;101411.13;4958731;28;20062;-79
2021/09/30 00:08:30;;;;;;;4.93;2.05;;;;;;;9.43;100.00;101418.75;4961292;28;20093;-79
2021/09/30 00:32:47;;;;;;;9.50;2.00;;;;;;;9.41;100.00;101431.13;4977735;28;20089;-77
2021/09/30 00:35:34;;;;;;;8.10;2.00;;;;;;;9.42;100.00;101438.00;4960791;28;20568;-78
2021/09/30 00:46:03;;;;;;;10.43;2.80;;;;;;;9.49;100.00;101439.19;4977439;28;20038;-76
2021/09/30 00:48:52;;;;;;;9.75;2.42;;;;;;;9.49;100.00;101447.91;4972854;28;20496;-79
2021/09/30 01:23:35;;;;;;;11.90;3.70;;;;;;;9.50;100.00;101470.50;4992660;28;20053;-79
2021/09/30 01:32:36;;;;;;;10.87;3.20;;;;;;;9.53;100.00;101465.03;4993061;28;20350;-79
2021/09/30 02:59:41;;;;;;;6.97;1.73;;;;;;;9.06;100.00;101528.94;4974950;28;20088;-76
2021/09/30 03:02:09;;;;;;;16.48;2.80;;;;;;;9.08;100.00;101540.09;4957866;28;20072;-78
2021/09/30 03:04:37;;;;;;;11.65;2.00;;;;;;;8.94;100.00;101539.38;4973556;28;20042;-78
2021/09/30 03:07:05;;;;;;;10.13;2.17;;;;;;;8.92;100.00;101549.13;4974237;28;20045;-79
2021/09/30 03:09:41;;;;;;;14.80;2.00;;;;;;;8.90;100.00;101548.41;4958754;28;20385;-78
2021/09/30 03:12:08;;;;;;;12.98;2.47;;;;;;;8.90;100.00;101551.03;4953834;28;20042;-77
2021/09/30 03:14:41;;;;;;;13.10;2.10;;;;;;;8.88;100.00;101542.47;4977542;28;20038;-78
2021/09/30 03:17:08;;;;;;;8.20;1.50;;;;;;;8.90;100.00;101545.78;4981770;28;20027;-79
2021/09/30 03:19:56;;;;;;;10.88;1.60;;;;;;;8.87;100.00;101566.13;4973951;28;20045;-79
2021/09/30 03:22:22;;;;;;;20.00;1.65;;;;;;;8.89;100.00;101561.59;4959906;28;20045;-79
2021/09/30 03:24:49;;;;;;;9.32;1.50;;;;;;;8.86;100.00;101567.09;4976488;28;20034;-78
2021/09/30 03:27:17;;;;;;;7.60;1.27;;;;;;;8.84;100.00;101582.06;4976021;28;20089;-78
2021/09/30 03:29:45;;;;;;;5.50;1.20;;;;;;;8.93;100.00;101576.97;4960054;28;20034;-79
2021/09/30 03:32:11;;;;;;;12.75;1.67;;;;;;;8.99;100.00;101567.00;4958887;28;20034;-79
2021/09/30 03:34:54;;;;;;;11.35;1.23;;;;;;;8.92;100.00;101577.09;4961087;28;20038;-79
2021/09/30 03:37:22;;;;;;;9.40;1.33;;;;;;;8.93;100.00;101565.69;4974593;28;20025;-80
2021/09/30 03:39:47;;;;;;;8.23;1.63;;;;;;;8.83;100.00;101586.44;4967618;28;20034;-80
2021/09/30 03:42:13;;;;;;;11.82;1.50;;;;;;;8.82;100.00;101583.97;4958916;28;20053;-79
2021/09/30 03:44:41;;;;;;;13.65;1.70;;;;;;;8.88;100.00;101580.88;4974619;28;20451;-79
2021/09/30 03:47:13;;;;;;;9.68;1.73;;;;;;;8.84;100.00;101589.91;4957720;28;20035;-79
2021/09/30 03:49:50;;;;;;;11.32;1.50;;;;;;;8.72;100.00;101602.97;4990177;28;20035;-79
2021/09/30 03:55:04;;;;;;;10.80;1.38;;;;;;;8.73;100.00;101606.41;4978737;28;20046;-79
2021/09/30 04:00:22;;;;;;;11.32;1.45;;;;;;;8.77;100.00;101595.59;4977661;28;20684;-78
2021/09/30 04:02:51;;;;;;;10.70;1.40;;;;;;;8.78;100.00;101614.75;4962724;28;20038;-77
2021/09/30 04:05:16;;;;;;;13.35;1.50;;;;;;;8.79;100.00;101605.13;4946207;28;20041;-81
2021/09/30 04:07:42;;;;;;;11.05;1.25;;;;;;;8.92;100.00;101591.00;4962786;28;20046;-79
2021/09/30 04:10:08;;;;;;;10.55;1.70;;;;;;;9.00;100.00;101615.75;4986456;28;20103;-78
2021/09/30 04:12:35;;;;;;;11.30;1.20;;;;;;;8.94;100.00;101612.66;4962354;28;20088;-80
2021/09/30 04:15:01;;;;;;;9.15;1.45;;;;;;;8.84;100.00;101635.22;4961988;28;20042;-80
2021/09/30 04:17:26;;;;;;;9.32;1.48;;;;;;;8.73;100.00;101628.16;4978586;28;20078;-80
2021/09/30 04:19:52;;;;;;;12.02;1.60;;;;;;;8.72;100.00;101616.03;4978008;28;20061;-79
2021/09/30 04:22:19;;;;;;;9.30;1.40;;;;;;;8.81;100.00;101622.34;4978204;28;20034;-79
2021/09/30 04:24:47;;;;;;;10.27;1.33;;;;;;;8.80;100.00;101622.47;4961642;28;20034;-80
2021/09/30 04:27:14;;;;;;;9.57;1.58;;;;;;;8.79;100.00;101642.56;4967809;28;20046;-80
2021/09/30 04:29:40;;;;;;;8.75;1.63;;;;;;;8.74;100.00;101648.16;4978370;28;20092;-77
2021/09/30 04:32:06;;;;;;;13.40;2.35;;;;;;;8.69;100.00;101652.03;4978238;28;20053;-80
2021/09/30 04:34:32;;;;;;;12.73;1.77;;;;;;;8.60;100.00;101640.47;4978022;28;20035;-80
2021/09/30 04:36:57;;;;;;;9.05;1.27;;;;;;;8.67;100.00;101646.09;4979130;28;20045;-80
2021/09/30 04:39:23;;;;;;;9.32;1.58;;;;;;;8.79;100.00;101655.66;4962621;28;20046;-81
2021/09/30 04:41:50;;;;;;;11.43;1.45;;;;;;;8.74;100.00;101660.41;4962430;28;20408;-80
2021/09/30 04:44:16;;;;;;;16.70;1.70;;;;;;;8.80;100.00;101665.16;4978640;28;20129;-79
2021/09/30 04:46:42;;;;;;;8.05;1.63;;;;;;;8.88;100.00;101657.59;4956705;28;20579;-83
2021/09/30 04:49:26;;;;;;;11.00;1.70;;;;;;;8.84;100.00;101658.75;4965987;28;20074;-81
2021/09/30 04:51:52;;;;;;;9.70;1.60;;;;;;;8.76;100.00;101675.03;4980381;28;20065;-78
2021/09/30 04:54:18;;;;;;;8.65;1.35;;;;;;;8.74;100.00;101670.88;4975038;28;20034;-78
2021/09/30 04:56:44;;;;;;;13.30;2.13;;;;;;;8.74;100.00;101673.47;4966547;28;20125;-80
2021/09/30 04:59:19;;;;;;;10.63;1.40;;;;;;;8.71;100.00;101684.16;4972654;28;20519;-78
2021/09/30 05:01:59;;;;;;;9.77;1.30;;;;;;;8.72;100.00;101684.03;4960365;28;20027;-77
2021/09/30 05:04:25;;;;;;;9.00;1.55;;;;;;;8.62;100.00;101685.63;4977355;28;20108;-78
2021/09/30 05:06:52;;;;;;;6.85;1.00;;;;;;;8.62;100.00;101693.47;4977843;28;20492;-78
2021/09/30 05:09:18;;;;;;;11.10;1.55;;;;;;;8.57;100.00;101690.38;4977378;28;20034;-79
2021/09/30 05:11:51;;;;;;;7.07;1.50;;;;;;;8.66;100.00;101683.63;4961398;28;20038;-80
2021/09/30 05:14:16;;;;;;;;;;;;;;;8.73;100.00;101693.53;4985199;28;20056;-77
2021/09/30 05:16:42;;;;;;;7.80;1.58;;;;;;;8.67;100.00;101698.41;4967465;28;19924;-81
2021/09/30 05:19:23;;;;;;;12.57;1.45;;;;;;;8.66;100.00;101694.09;4977277;28;20100;-81
2021/09/30 05:21:49;;;;;;;9.10;1.58;;;;;;;8.67;100.00;101695.78;4961423;28;20030;-80
2021/09/30 05:24:15;;;;;;;12.10;1.40;;;;;;;8.63;100.00;101717.88;4977077;28;20490;-79
2021/09/30 05:26:40;;;;;;;14.30;1.70;;;;;;;8.60;100.00;101711.06;4961347;28;20034;-79
2021/09/30 05:29:09;;;;;;;9.85;1.65;;;;;;;8.53;100.00;101705.47;4976959;28;20038;-78
2021/09/30 05:31:38;;;;;;;10.85;1.52;;;;;;;8.58;100.00;101700.72;4961417;28;20575;-79
2021/09/30 05:34:24;;;;;;;8.85;1.33;;;;;;;8.64;100.00;101696.00;4976863;28;20046;-81
2021/09/30 05:36:50;;;;;;;12.15;1.60;;;;;;;8.57;100.00;101691.22;4960765;28;20033;-80
2021/09/30 05:39:15;;;;;;;9.38;1.80;;;;;;;8.54;100.00;101707.13;4976462;28;20088;-80
2021/09/30 05:41:41;;;;;;;9.55;1.45;;;;;;;8.52;100.00;101710.78;4960596;28;20033;-81
2021/09/30 05:44:10;;;;;;;9.85;1.50;;;;;;;8.55;100.00;101708.78;4960660;28;20038;-80
2021/09/30 05:46:43;;;;;;;7.25;1.23;;;;;;;8.50;100.00;101713.50;4976478;28;20113;-78
2021/09/30 05:49:10;;;;;;;11.45;1.50;;;;;;;8.53;100.00;101715.91;4976591;28;20034;-79
2021/09/30 05:51:37;;;;;;;9.82;1.30;;;;;;;8.58;100.00;101708.56;4968331;28;20575;-80
2021/09/30 05:54:22;;;;;;;8.65;1.70;;;;;;;8.63;100.00;101721.31;4991878;28;20516;-78
2021/09/30 05:57:02;;;;;;;10.60;1.35;;;;;;;8.64;100.00;101730.81;4962722;28;20052;-80
2021/09/30 05:59:27;;;;;;;7.38;1.05;;;;;;;8.64;100.00;101715.13;4976240;28;20387;-79
2021/09/30 06:10:12;;;;;;;6.85;1.20;;;;;;;8.64;100.00;101736.06;4955649;28;20525;-78
2021/09/30 06:12:45;;;;;;;8.60;1.27;;;;;;;8.64;100.00;101750.91;4958674;28;20532;-79
2021/09/30 06:15:15;;;;;;;6.72;1.30;;;;;;;8.58;100.00;101744.34;4974941;28;20038;-80
2021/09/30 06:17:45;;;;;;;8.50;1.63;;;;;;;8.61;100.00;101749.38;4968112;28;20034;-80
2021/09/30 06:20:13;;;;;;;7.85;1.42;;;;;;;8.58;100.00;101760.84;4960351;28;20037;-80
2021/09/30 06:22:38;;;;;;;11.57;1.23;;;;;;;8.56;100.00;101746.22;4943797;28;20034;-78
2021/09/30 06:25:04;;;;;;;6.75;1.02;;;;;;;8.60;100.00;101760.75;4974814;28;20405;-77
2021/09/30 06:27:31;;;;;;;5.80;1.15;;;;;;;8.60;100.00;101762.53;4961114;28;20097;-78
2021/09/30 06:29:57;;;;;;;7.82;1.73;;;;;;;8.64;100.00;101756.97;4977507;28;20088;-79
2021/09/30 06:32:23;;;;;;;8.57;1.30;;;;;;;8.70;100.00;101753.09;4960742;28;20046;-80
2021/09/30 06:35:07;;;;;;;9.30;1.35;;;;;;;8.76;100.00;101766.59;4976035;28;20042;-79
2021/09/30 06:37:39;;;;;;;;;;;;;;;8.81;100.00;101781.94;4961573;28;20034;-80
2021/09/30 06:40:06;;;;;;;6.45;1.20;;;;;;;8.84;100.00;101781.72;4976030;28;20031;-79
2021/09/30 06:42:32;;;;;;;12.57;1.48;;;;;;;8.92;100.00;101781.19;4959858;28;20089;-80
2021/09/30 06:45:18;;;;;;;11.02;1.33;;;;;;;9.10;100.00;101795.56;4996218;28;20041;-79
2021/09/30 06:48:10;;;;;;;10.18;1.10;;;;;;;9.20;100.00;101802.75;4956481;28;20133;-78
2021/09/30 06:50:46;;;;;;;11.70;1.33;;;;;;;9.28;100.00;101806.44;4975364;28;20177;-77
2021/09/30 06:53:24;;;;;;;9.40;1.40;;;;;;;9.37;100.00;101818.03;4975356;28;20042;-78
2021/09/30 06:55:51;;;;;;;8.95;1.33;;;;;;;9.55;100.00;101819.31;4976971;28;20040;-77
2021/09/30 06:58:48;;;;;;;9.10;1.27;;;;;;;9.89;100.00;101823.84;4942405;28;20127;-80
2021/09/30 07:01:33;;;;;;;5.20;0.90;;;;;;;10.01;100.00;101817.66;4975305;28;20065;-80
2021/09/30 07:04:25;;;;;;;7.10;1.13;;;;;;;10.18;100.00;101816.38;4974752;28;20520;-79
2021/09/30 07:07:19;;;;;;;8.15;1.33;;;;;;;10.24;100.00;101831.63;4953888;28;20046;-78
2021/09/30 07:09:46;;;;;;;9.50;1.20;;;;;;;10.22;100.00;101823.03;4959098;28;20409;-78
2021/09/30 07:12:12;;;;;;;7.45;1.30;;;;;;;10.17;100.00;101834.81;4983126;28;20026;-81
2021/09/30 07:14:39;;;;;;;6.65;1.33;;;;;;;10.10;100.00;101834.47;4958939;28;20030;-78
2021/09/30 07:17:06;;;;;;;4.97;1.20;;;;;;;10.09;100.00;101843.28;4967286;28;20034;-79
2021/09/30 07:19:33;;;;;;;9.68;1.20;;;;;;;10.12;100.00;101846.50;4959020;28;20042;-77
2021/09/30 07:21:59;;;;;;;6.35;1.08;;;;;;;10.14;100.00;101852.47;4959317;28;20057;-79
2021/09/30 07:24:25;;;;;;;8.57;1.27;;;;;;;10.10;100.00;101863.31;4974880;28;20038;-78
2021/09/30 07:26:50;;;;;;;7.90;1.23;;;;;;;10.06;100.00;101864.50;4958757;28;20053;-78
2021/09/30 07:29:16;;;;;;;7.40;1.38;;;;;;;10.03;100.00;101869.97;4975357;28;20050;-78
2021/09/30 07:31:42;;;;;;;5.07;1.10;;;;;;;10.04;100.00;101867.22;4975467;28;20058;-78
2021/09/30 07:34:11;;;;;;;6.95;1.02;;;;;;;10.09;100.00;101859.84;4942786;28;20035;-79
2021/09/30 07:36:39;;;;;;;9.82;1.20;;;;;;;10.18;100.00;101855.69;4974904;28;20038;-78
2021/09/30 07:39:05;;;;;;;6.78;1.33;;;;;;;10.16;100.00;101862.00;4974907;28;20034;-81
2021/09/30 07:41:31;;;;;;;9.98;1.20;;;;;;;10.11;100.00;101871.06;4974844;28;20760;-77
2021/09/30 07:43:56;;;;;;;6.90;1.23;;;;;;;10.05;100.00;101879.38;4974957;28;20038;-79
2021/09/30 07:46:22;;;;;;;7.00;0.90;;;;;;;10.02;100.00;101866.53;4974860;28;20042;-79
2021/09/30 07:48:47;;;;;;;8.65;1.13;;;;;;;9.98;100.00;101880.78;4958124;28;20088;-79
2021/09/30 07:51:12;;;;;;;4.40;0.95;;;;;;;10.16;100.00;101883.81;4975355;28;20042;-79
2021/09/30 07:53:38;;;;;;;9.27;1.70;;;;;;;10.28;100.00;101884.66;4974975;28;20687;-76
2021/09/30 07:56:04;;;;;;;8.43;1.42;;;;;;;10.39;100.00;101892.59;4969486;28;20405;-79
2021/09/30 07:58:30;;;;;;;5.88;0.90;;;;;;;10.48;100.00;101886.63;4974916;28;20493;-77
2021/09/30 08:00:55;;;;;;;8.20;1.17;;;;;;;10.48;100.00;101886.63;4958541;28;20519;-80
2021/09/30 08:03:21;;;;;;;11.82;1.35;;;;;;;10.67;100.00;101886.03;4974884;28;20030;-79
2021/09/30 08:05:46;;;;;;;8.80;1.20;;;;;;;10.73;100.00;101889.97;4954896;28;20049;-79
2021/09/30 08:08:12;;;;;;;7.07;1.20;;;;;;;10.94;100.00;101899.75;4991435;28;20030;-78
2021/09/30 08:10:41;;;;;;;8.00;1.13;;;;;;;11.21;100.00;101907.25;4958842;28;20093;-79
2021/09/30 08:13:07;;;;;;;3.85;1.15;;;;;;;11.34;99.53;101907.09;4974815;28;20122;-80
2021/09/30 08:15:33;;;;;;;4.25;1.00;;;;;;;11.44;98.12;101915.94;4958517;28;20101;-80
2021/09/30 08:17:59;;;;;;;9.50;1.13;;;;;;;11.56;97.16;101920.16;4974883;28;20105;-78
2021/09/30 08:20:25;;;;;;;10.07;1.30;;;;;;;11.68;98.09;101913.09;4942874;28;20419;-79
2021/09/30 08:22:53;;;;;;;5.25;1.30;;;;;;;11.90;98.50;101916.63;4974581;28;20018;-80
2021/09/30 08:25:19;;;;;;;10.55;1.27;;;;;;;11.91;96.95;101934.09;4969600;28;20090;-80
2021/09/30 08:27:44;;;;;;;8.68;1.27;;;;;;;11.92;96.12;101920.78;4976031;28;20433;-81
2021/09/30 08:30:10;;;;;;;8.93;1.08;;;;;;;11.94;96.14;101921.53;4974310;28;20046;-81
2021/09/30 08:32:36;;;;;;;4.88;1.00;;;;;;;12.04;95.15;101913.69;4974211;28;20452;-80
2021/09/30 08:35:02;;;;;;;8.43;1.00;;;;;;;11.99;95.64;101911.44;4958184;28;20049;-81
2021/09/30 08:37:30;;;;;;;7.25;1.27;;;;;;;12.04;96.17;101922.41;4943807;28;20046;-79
2021/09/30 08:39:56;;;;;;;5.35;1.15;;;;;;;12.09;95.20;101916.75;4959335;28;20043;-80
2021/09/30 08:42:21;;;;;;;7.80;1.30;;;;;;;12.16;97.21;101932.88;4957868;28;20037;-80
2021/09/30 08:44:48;;;;;;;7.55;1.25;;;;;;;12.25;95.70;101929.47;4974532;28;20085;-80
2021/09/30 08:47:13;;;;;;;5.40;0.82;;;;;;;12.34;97.81;101933.97;4977518;28;20030;-81
2021/09/30 08:49:39;;;;;;;8.35;1.20;;;;;;;12.18;95.71;101937.03;4977580;28;20038;-83
2021/09/30 08:52:04;;;;;;;9.32;1.10;;;;;;;12.07;95.55;101942.34;4977879;28;20385;-80
2021/09/30 08:54:30;;;;;;;6.57;1.48;;;;;;;12.19;96.61;101943.16;4977349;28;20038;-77
2021/09/30 08:56:55;;;;;;;7.50;1.38;;;;;;;12.44;95.45;101945.38;4962231;28;20065;-80
2021/09/30 08:59:27;;;;;;;8.98;1.20;;;;;;;12.63;96.19;101954.34;4977944;28;20467;-77
2021/09/30 09:02:22;;;;;;;8.75;1.58;;;;;;;12.87;93.53;101946.16;4977499;28;20560;-78
2021/09/30 09:04:58;;;;;;;5.68;1.33;;;;;;;12.95;92.57;101948.13;4971302;28;20046;-79
2021/09/30 09:07:25;;;;;;;3.38;0.98;;;;;;;13.16;90.21;101943.63;4945372;28;20039;-81
2021/09/30 09:09:52;;;;;;;6.43;1.20;;;;;;;13.33;91.36;101957.97;4961218;28;20405;-78
2021/09/30 09:12:17;;;;;;;8.23;1.27;;;;;;;13.46;88.98;101963.00;4977434;28;20030;-80
2021/09/30 09:14:43;;;;;;;8.95;1.00;;;;;;;13.65;87.77;101974.56;4960873;28;20030;-80
2021/09/30 09:17:15;;;;;;;8.55;1.30;;;;;;;13.73;91.07;101958.88;4960787;28;20045;-78
2021/09/30 09:19:47;;;;;;;4.72;1.13;;;;;;;13.58;90.39;101971.63;4961759;28;20054;-81
2021/09/30 09:22:22;;;;;;;9.02;1.65;;;;;;;13.35;89.37;101966.59;4976921;28;20031;-79
2021/09/30 09:25:08;;;;;;;9.30;1.23;;;;;;;13.22;89.74;101980.00;4960742;28;20038;-81
2021/09/30 09:27:55;;;;;;;5.80;1.30;;;;;;;13.21;88.60;101965.13;4977220;28;20096;-79
2021/09/30 09:30:29;;;;;;;8.43;1.17;;;;;;;13.28;91.46;101978.63;4960899;28;20038;-81
2021/09/30 09:33:08;;;;;;;9.43;1.48;;;;;;;13.50;92.13;101979.38;4977055;28;20501;-80
2021/09/30 09:35:46;;;;;;;9.93;1.45;;;;;;;13.66;89.68;101997.34;4960406;28;20575;-80
2021/09/30 09:38:12;;;;;;;5.05;1.15;;;;;;;13.77;88.36;101987.50;4960605;28;20408;-79
2021/09/30 09:40:38;;;;;;;7.72;1.40;;;;;;;13.79;87.80;101990.81;4960886;28;20042;-80
2021/09/30 09:43:34;;;;;;;13.70;1.70;;;;;;;13.91;86.86;101990.69;4992696;28;20535;-79
2021/09/30 09:46:01;;;;;;;10.00;1.60;;;;;;;13.80;85.35;101991.66;4975837;28;20038;-79
2021/09/30 09:48:27;;;;;;;7.35;1.27;;;;;;;13.60;87.86;101996.06;4976317;28;20034;-80
2021/09/30 09:50:54;;;;;;;8.88;1.33;;;;;;;13.49;87.88;101985.66;4960888;28;20413;-80
2021/09/30 09:53:26;;;;;;;8.93;1.77;;;;;;;13.44;88.69;101994.75;4960840;28;20045;-80
2021/09/30 09:55:51;;;;;;;7.05;1.40;;;;;;;13.33;91.64;101994.88;4975884;28;20092;-79
2021/09/30 09:58:18;;;;;;;7.38;1.45;;;;;;;13.46;93.46;101981.47;4974783;28;20038;-79
2021/09/30 10:00:49;;;;;;;8.73;1.40;;;;;;;13.62;91.96;101989.69;4960068;28;20500;-80
2021/09/30 10:03:16;;;;;;;8.60;1.55;;;;;;;13.91;90.89;101982.78;4960306;28;20074;-79
2021/09/30 10:05:46;;;;;;;7.35;1.38;;;;;;;14.24;87.73;101984.16;4956060;28;20038;-79
2021/09/30 10:08:16;;;;;;;6.25;1.40;;;;;;;14.24;85.89;101991.25;4977602;28;20038;-79
2021/09/30 10:10:45;;;;;;;9.65;1.65;;;;;;;14.40;85.47;101999.44;4960320;28;20038;-80
2021/09/30 10:13:11;;;;;;;8.05;1.40;;;;;;;14.75;86.82;102001.47;4960209;28;20496;-77
2021/09/30 10:15:37;;;;;;;14.88;1.90;;;;;;;15.02;87.41;102017.53;4959518;28;20034;-80
2021/09/30 10:18:06;;;;;;;14.32;2.00;;;;;;;14.71;80.53;102013.31;4975623;28;20065;-80
2021/09/30 10:20:32;;;;;;;7.93;1.60;;;;;;;14.51;85.34;102009.81;4959536;28;20050;-80
2021/09/30 10:22:58;;;;;;;5.13;1.33;;;;;;;14.45;84.15;102017.47;4975621;28;20058;-79
2021/09/30 10:25:33;;;;;;;9.15;1.45;;;;;;;14.50;85.67;102020.53;4959481;28;20042;-79
2021/09/30 10:28:01;;;;;;;11.10;1.75;;;;;;;14.65;85.54;102021.78;4960043;28;20040;-80
2021/09/30 10:30:34;;;;;;;4.05;1.05;;;;;;;15.03;85.68;102009.47;4975619;28;20516;-80
2021/09/30 10:33:01;;;;;;;9.43;1.30;;;;;;;15.19;83.53;102012.28;4975540;28;20413;-80
2021/09/30 10:35:41;;;;;;;10.30;1.45;;;;;;;15.02;81.70;102013.06;4975089;28;20048;-80
2021/09/30 10:38:21;;;;;;;10.82;1.30;;;;;;;15.14;78.24;102019.84;4974763;28;20057;-77
2021/09/30 10:41:13;;;;;;;6.00;0.95;;;;;;;15.35;83.92;102014.31;4975632;28;20042;-80
2021/09/30 10:43:47;;;;;;;9.60;1.13;;;;;;;15.47;82.34;102014.94;4956924;28;20061;-79
2021/09/30 10:46:22;;;;;;;8.70;1.38;;;;;;;15.67;77.03;102017.47;4950733;28;20497;-78
2021/09/30 10:48:51;;;;;;;8.38;1.38;;;;;;;15.65;78.41;102020.28;4955079;28;20069;-80
2021/09/30 10:51:17;;;;;;;9.88;1.45;;;;;;;15.65;77.62;102019.44;4967399;28;20128;-81
2021/09/30 10:53:45;;;;;;;8.80;1.92;;;;;;;15.80;76.83;102014.50;4975159;28;20081;-79
2021/09/30 10:56:30;;;;;;;7.80;1.45;;;;;;;16.06;75.63;102015.41;4959073;28;20188;-80
2021/09/30 10:59:07;;;;;;;9.25;1.70;;;;;;;15.92;77.17;102019.44;4974786;28;20038;-80
2021/09/30 11:01:45;;;;;;;7.15;1.58;;;;;;;15.97;79.43;102026.91;4974028;28;20070;-78
2021/09/30 11:04:10;;;;;;;6.75;1.20;;;;;;;15.82;77.60;102036.34;4975011;28;20039;-79
2021/09/30 11:06:37;;;;;;;8.35;1.33;;;;;;;15.60;75.14;102024.34;4975020;28;20103;-80
2021/09/30 11:09:14;;;;;;;9.30;1.27;;;;;;;15.57;77.43;102033.41;4969240;28;20034;-81
2021/09/30 11:11:42;;;;;;;11.77;2.17;;;;;;;15.62;76.34;102038.25;4980625;28;20030;-81
2021/09/30 11:14:10;;;;;;;4.22;1.20;;;;;;;15.19;78.54;102049.28;4991151;28;20034;-80
2021/09/30 11:16:49;;;;;;;7.80;1.10;;;;;;;15.28;78.19;102046.78;4973701;28;20421;-81
2021/09/30 11:19:30;;;;;;;10.40;1.20;;;;;;;15.48;78.78;102040.44;4974503;28;20145;-80
2021/09/30 11:22:01;;;;;;;9.52;1.40;;;;;;;15.70;77.03;102040.97;4974653;28;20022;-80
2021/09/30 11:24:29;;;;;;;11.23;1.13;;;;;;;15.83;73.22;102046.78;4974496;28;20056;-79
2021/09/30 11:26:55;;;;;;;6.65;1.08;;;;;;;16.06;72.19;102046.34;4974894;28;20050;-79
2021/09/30 11:29:24;;;;;;;8.77;1.35;;;;;;;16.24;72.93;102044.53;4958514;28;20038;-81
2021/09/30 11:31:53;;;;;;;6.80;1.20;;;;;;;16.39;68.66;102051.91;4958613;28;20077;-81
2021/09/30 11:34:21;;;;;;;7.30;1.65;;;;;;;16.27;69.47;102038.91;4961649;28;20038;-80
2021/09/30 11:36:47;;;;;;;6.53;0.93;;;;;;;16.37;71.59;102060.03;4974375;28;20042;-78
2021/09/30 11:39:13;;;;;;;14.13;1.60;;;;;;;16.44;68.02;102052.28;4958786;28;20030;-81
2021/09/30 11:41:40;;;;;;;7.82;1.15;;;;;;;16.42;69.79;102057.75;4959193;28;20085;-81
2021/09/30 11:44:06;;;;;;;15.43;1.35;;;;;;;16.18;71.22;102052.22;4975194;28;20027;-79
2021/09/30 11:46:38;;;;;;;10.15;1.60;;;;;;;16.28;72.54;102056.47;4974406;28;20117;-81
2021/09/30 11:49:06;;;;;;;10.38;1.40;;;;;;;16.14;69.48;102059.66;4950745;28;20034;-79
2021/09/30 11:51:34;;;;;;;12.07;1.30;;;;;;;15.57;72.32;102062.50;4974368;28;20038;-81
2021/09/30 11:54:00;;;;;;;7.07;1.10;;;;;;;15.49;73.48;102063.22;4959523;28;20058;-80
2021/09/30 11:56:27;;;;;;;7.03;1.10;;;;;;;15.58;74.13;102059.69;4975699;28;20042;-79
2021/09/30 11:59:05;;;;;;;10.07;1.25;;;;;;;15.48;75.45;102064.22;4991380;28;20164;-78
2021/09/30 12:01:36;;;;;;;8.80;1.08;;;;;;;15.62;75.50;102065.53;4955370;28;20042;-79
2021/09/30 12:04:07;;;;;;;9.63;1.40;;;;;;;15.78;74.99;102062.25;4977190;28;20026;-80
2021/09/30 12:06:47;;;;;;;9.07;1.33;;;;;;;16.16;71.52;102065.63;4958058;28;20038;-80
2021/09/30 12:09:16;;;;;;;8.70;1.30;;;;;;;16.39;67.75;102071.31;4973604;28;20577;-80
2021/09/30 12:11:52;;;;;;;9.73;1.33;;;;;;;16.67;68.85;102072.03;4959422;28;20489;-77
2021/09/30 12:14:19;;;;;;;11.85;1.52;;;;;;;16.66;66.58;102080.94;4945441;28;20084;-78
2021/09/30 12:16:56;;;;;;;11.52;1.50;;;;;;;16.81;66.14;102085.69;4961594;28;20054;-78
2021/09/30 12:19:49;;;;;;;8.88;1.45;;;;;;;17.01;68.36;102067.78;4971808;28;20034;-79
2021/09/30 12:22:32;;;;;;;6.28;1.02;;;;;;;17.30;64.65;102078.06;4946569;28;20043;-81
2021/09/30 12:25:19;;;;;;;10.07;1.17;;;;;;;17.44;63.23;102082.78;5001426;28;20150;-76
2021/09/30 12:27:48;;;;;;;9.23;1.20;;;;;;;17.61;63.63;102083.69;4959783;28;20030;-77
2021/09/30 12:30:20;;;;;;;6.68;1.10;;;;;;;17.71;62.50;102091.50;4961421;28;20066;-79
2021/09/30 12:32:48;;;;;;;6.43;1.37;;;;;;;17.79;62.07;102080.09;4977904;28;20041;-80
2021/09/30 12:35:26;;;;;;;8.60;1.40;;;;;;;17.83;64.38;102084.88;4977618;28;20508;-78
2021/09/30 12:37:55;;;;;;;4.38;1.20;;;;;;;18.06;61.09;102093.13;4945600;28;20497;-80
2021/09/30 12:40:22;;;;;;;9.93;1.35;;;;;;;18.27;59.86;102095.31;4977664;28;20066;-80
2021/09/30 12:43:00;;;;;;;6.50;1.40;;;;;;;18.38;58.55;102095.97;4961746;28;20045;-78
2021/09/30 12:45:26;;;;;;;9.10;1.58;;;;;;;18.45;55.64;102095.13;4976847;28;20651;-81
2021/09/30 12:48:07;;;;;;;7.10;1.23;;;;;;;18.42;56.49;102089.31;4960866;28;20028;-81
2021/09/30 12:50:36;;;;;;;9.93;1.20;;;;;;;18.41;58.65;102091.16;4961837;28;20034;-77
2021/09/30 12:53:03;;;;;;;5.00;1.42;;;;;;;18.36;59.24;102080.19;4977991;28;20037;-80
2021/09/30 12:55:30;;;;;;;11.70;1.50;;;;;;;18.28;56.52;102077.53;4977121;28;20153;-81
2021/09/30 12:57:57;;;;;;;9.10;1.10;;;;;;;18.67;57.29;102087.50;4961224;28;20038;-79
2021/09/30 13:00:24;;;;;;;8.50;1.33;;;;;;;18.33;56.27;102092.97;4977294;28;20580;-81
2021/09/30 13:02:58;;;;;;;5.55;1.50;;;;;;;18.29;61.73;102097.81;4961144;28;20409;-82
2021/09/30 13:05:24;;;;;;;10.02;1.52;;;;;;;18.17;62.57;102091.97;4977119;28;20056;-82
2021/09/30 13:07:53;;;;;;;7.97;1.33;;;;;;;17.45;70.50;102107.47;4977025;28;20042;-81
2021/09/30 13:10:26;;;;;;;6.00;1.30;;;;;;;16.48;73.35;102091.59;4972499;28;20509;-79
2021/09/30 13:13:05;;;;;;;9.32;1.20;;;;;;;16.52;65.31;102097.41;4961660;28;20043;-81
2021/09/30 13:15:45;;;;;;;9.63;1.25;;;;;;;16.71;65.95;102099.88;4961192;28;20046;-82
2021/09/30 13:18:15;;;;;;;7.38;1.20;;;;;;;17.18;62.61;102087.25;4961574;28;20088;-81
2021/09/30 13:21:02;;;;;;;7.70;1.27;;;;;;;17.26;63.04;102092.63;4977087;28;20126;-81
2021/09/30 13:23:28;;;;;;;8.68;1.58;;;;;;;17.25;60.89;102094.47;4944327;28;20035;-79
2021/09/30 13:25:55;;;;;;;9.85;1.35;;;;;;;16.91;62.55;102089.94;4976616;28;20035;-80
2021/09/30 13:28:20;;;;;;;7.15;1.30;;;;;;;16.60;65.58;102089.50;4961375;28;20596;-80
2021/09/30 13:30:46;;;;;;;6.35;1.27;;;;;;;16.30;68.67;102083.63;4976901;28;20038;-80
2021/09/30 13:33:12;;;;;;;4.10;1.10;;;;;;;16.02;67.50;102089.97;4961037;28;20046;-81
2021/09/30 13:35:39;;;;;;;6.43;1.30;;;;;;;15.88;70.26;102081.56;4976391;28;20821;-81
2021/09/30 13:38:05;;;;;;;5.32;1.20;;;;;;;15.79;68.75;102081.63;4976593;28;20046;-79
2021/09/30 13:40:30;;;;;;;10.38;1.42;;;;;;;15.58;72.82;102072.91;4976706;28;20030;-80
2021/09/30 13:42:56;;;;;;;8.77;1.50;;;;;;;15.63;71.08;102083.03;4977239;28;20503;-82
2021/09/30 13:45:22;;;;;;;7.45;1.17;;;;;;;15.71;68.15;102077.88;4976744;28;20034;-81
2021/09/30 13:47:48;;;;;;;6.20;1.17;;;;;;;15.73;65.79;102078.59;4968985;28;20515;-79
2021/09/30 13:50:20;;;;;;;6.50;1.30;;;;;;;15.45;73.88;102077.72;4977025;28;20129;-82
2021/09/30 13:52:48;;;;;;;7.35;1.98;;;;;;;15.27;72.71;102084.75;4960700;28;20030;-81
2021/09/30 13:55:15;;;;;;;9.10;1.45;;;;;;;15.34;67.46;102076.09;4975935;28;20030;-79
2021/09/30 13:57:41;;;;;;;7.22;1.30;;;;;;;15.28;70.90;102071.38;4960832;28;20615;-81
2021/09/30 14:00:10;;;;;;;8.77;1.90;;;;;;;15.42;71.31;102080.66;4971067;28;20030;-79
2021/09/30 14:02:36;;;;;;;7.07;1.40;;;;;;;15.50;65.76;102064.06;4973804;28;20036;-81
2021/09/30 14:05:03;;;;;;;7.78;1.42;;;;;;;15.48;73.10;102068.66;4976450;28;20041;-81
2021/09/30 14:07:29;;;;;;;7.93;1.48;;;;;;;15.30;73.95;102064.16;4952603;28;20116;-80
2021/09/30 14:09:55;;;;;;;6.00;1.25;;;;;;;15.37;71.91;102064.41;4976461;28;20034;-81
2021/09/30 14:12:21;;;;;;;8.55;1.27;;;;;;;15.39;70.68;102057.16;4967680;28;20050;-79
2021/09/30 14:14:46;;;;;;;7.88;1.30;;;;;;;15.36;68.94;102063.56;4959432;28;20034;-81
2021/09/30 14:17:12;;;;;;;5.93;1.00;;;;;;;15.50;63.72;102061.41;4966698;28;20045;-81
2021/09/30 14:19:37;;;;;;;5.95;1.08;;;;;;;15.57;63.83;102060.66;4973423;28;20077;-82
2021/09/30 14:22:04;;;;;;;5.63;0.98;;;;;;;15.75;64.78;102046.69;4959915;28;20034;-80